createdAt,value
2023-01-30T00:02:10.010Z,43.70
2023-01-30T00:05:11.514Z,43.50
2023-01-30T00:08:13.601Z,43.40
2023-01-30T00:11:16.022Z,43.00
2023-01-30T00:14:17.328Z,43.30
2023-01-30T00:17:18.567Z,43.90
2023-01-30T00:20:20.146Z,43.80
2023-01-30T00:23:22.231Z,43.40
2023-01-30T00:26:23.501Z,43.70
2023-01-30T00:29:24.778Z,43.50
2023-01-30T00:32:26.950Z,43.50
2023-01-30T00:35:28.297Z,43.60
2023-01-30T00:38:30.116Z,43.60
2023-01-30T00:41:40.669Z,43.70
2023-01-30T00:44:52.856Z,43.40
2023-01-30T00:47:54.176Z,43.50
2023-01-30T00:50:55.421Z,43.60
2023-01-30T00:53:57.296Z,43.60
2023-01-30T00:56:58.906Z,43.90
2023-01-30T01:00:00.314Z,43.50
2023-01-30T01:03:01.629Z,43.60
2023-01-30T01:06:03.138Z,44.00
2023-01-30T01:09:05.411Z,43.60
2023-01-30T01:12:06.800Z,43.20
2023-01-30T01:15:08.295Z,43.90
2023-01-30T01:18:09.614Z,43.80
2023-01-30T01:21:10.889Z,43.60
2023-01-30T01:24:13.509Z,43.60
2023-01-30T01:27:15.162Z,43.80
2023-01-30T01:30:16.609Z,43.60
2023-01-30T01:33:18.437Z,43.60
2023-01-30T01:36:49.711Z,44.30
2023-01-30T01:39:52.858Z,43.80
2023-01-30T01:42:55.140Z,43.60
2023-01-30T01:45:58.219Z,43.70
2023-01-30T01:49:02.737Z,43.50
2023-01-30T01:52:05.367Z,43.70
2023-01-30T01:55:07.379Z,44.40
2023-01-30T01:58:10.645Z,43.60
2023-01-30T02:01:12.062Z,43.80
2023-01-30T02:04:33.641Z,43.80
2023-01-30T02:07:37.267Z,44.20
2023-01-30T02:10:42.988Z,43.40
2023-01-30T02:13:44.230Z,43.70
2023-01-30T02:16:45.997Z,44.20
2023-01-30T02:19:50.536Z,43.50
2023-01-30T02:23:02.160Z,44.10
2023-01-30T02:26:15.270Z,43.90
2023-01-30T02:29:23.578Z,44.00
2023-01-30T02:32:28.528Z,44.00
2023-01-30T02:35:35.242Z,44.20
2023-01-30T02:38:40.089Z,44.00
2023-01-30T02:41:48.113Z,44.20
2023-01-30T02:44:52.436Z,44.00
2023-01-30T02:47:56.669Z,44.10
2023-01-30T02:50:59.226Z,44.00
2023-01-30T02:54:00.675Z,44.30
2023-01-30T02:57:02.073Z,44.20
2023-01-30T03:00:04.427Z,44.50
2023-01-30T03:03:19.918Z,44.10
2023-01-30T03:06:32.630Z,44.20
2023-01-30T03:09:39.970Z,44.60
2023-01-30T03:12:48.339Z,44.40
2023-01-30T03:15:51.884Z,44.20
2023-01-30T03:18:54.321Z,44.50
2023-01-30T03:21:55.724Z,44.50
2023-01-30T03:24:57.600Z,44.70
2023-01-30T03:27:59.207Z,44.60
2023-01-30T03:31:00.625Z,44.50
2023-01-30T03:34:03.707Z,45.00
2023-01-30T03:37:06.628Z,44.60
2023-01-30T03:40:11.262Z,44.50
2023-01-30T03:43:12.496Z,44.60
2023-01-30T03:46:13.781Z,44.70
2023-01-30T03:49:15.727Z,44.60
2023-01-30T03:52:17.096Z,44.60
2023-01-30T03:55:18.883Z,44.60
2023-01-30T03:58:20.435Z,44.70
2023-01-30T04:01:21.883Z,44.80
2023-01-30T04:04:23.763Z,44.70
2023-01-30T04:07:27.807Z,45.10
2023-01-30T04:10:29.308Z,45.10
2023-01-30T04:13:30.689Z,45.00
2023-01-30T04:16:32.721Z,44.80
2023-01-30T04:19:54.396Z,45.60
2023-01-30T04:22:55.904Z,45.40
2023-01-30T04:25:59.147Z,45.60
2023-01-30T04:29:01.403Z,45.80
2023-01-30T04:32:03.961Z,45.60
2023-01-30T04:35:09.788Z,45.40
2023-01-30T04:38:11.226Z,45.60
2023-01-30T04:41:12.805Z,45.80
2023-01-30T04:44:16.783Z,45.40
2023-01-30T04:47:25.699Z,45.50
2023-01-30T04:50:28.872Z,45.50
2023-01-30T04:53:30.302Z,45.40
2023-01-30T04:56:31.558Z,45.80
2023-01-30T04:59:32.879Z,45.70
2023-01-30T05:02:38.079Z,45.70
2023-01-30T05:05:39.981Z,46.50
2023-01-30T05:08:46.593Z,45.80
2023-01-30T05:11:48.179Z,45.20
2023-01-30T05:14:49.395Z,46.00
2023-01-30T05:17:50.652Z,45.80
2023-01-30T05:20:52.457Z,46.20
2023-01-30T05:23:55.532Z,46.20
2023-01-30T05:26:56.786Z,45.60
2023-01-30T05:29:58.070Z,45.70
2023-01-30T05:32:59.298Z,45.90
2023-01-30T05:36:01.676Z,45.80
2023-01-30T05:39:03.225Z,45.80
2023-01-30T05:42:04.746Z,45.70
2023-01-30T05:45:06.454Z,45.00
2023-01-30T05:48:07.731Z,45.40
2023-01-30T05:51:15.042Z,45.60
2023-01-30T05:54:16.415Z,45.40
2023-01-30T05:57:17.663Z,45.70
2023-01-30T06:00:19.393Z,45.90
2023-01-30T06:03:20.677Z,45.70
2023-01-30T06:06:22.727Z,45.90
2023-01-30T06:09:24.069Z,45.80
2023-01-30T06:12:25.403Z,45.30
2023-01-30T06:15:26.730Z,45.80
2023-01-30T06:18:28.017Z,46.10
2023-01-30T06:21:30.077Z,45.80
2023-01-30T06:24:31.509Z,45.90
2023-01-30T06:27:32.845Z,45.40
2023-01-30T06:30:34.384Z,46.40
2023-01-30T06:33:36.069Z,45.90
2023-01-30T06:36:38.000Z,46.30
2023-01-30T06:39:39.241Z,46.00
2023-01-30T06:42:43.746Z,46.10
2023-01-30T06:45:45.003Z,46.30
2023-01-30T06:48:46.388Z,46.60
2023-01-30T06:51:48.312Z,46.20
2023-01-30T06:54:49.984Z,46.50
2023-01-30T06:58:00.442Z,46.10
2023-01-30T07:01:01.817Z,46.10
2023-01-30T07:04:03.219Z,45.90
2023-01-30T07:07:06.952Z,46.60
2023-01-30T07:10:11.198Z,46.10
2023-01-30T07:13:12.909Z,45.60
2023-01-30T07:16:14.180Z,46.60
2023-01-30T07:19:15.529Z,46.80
2023-01-30T07:22:17.448Z,46.50
2023-01-30T07:25:19.401Z,46.90
2023-01-30T07:28:20.902Z,46.50
2023-01-30T07:31:22.244Z,47.00
2023-01-30T07:34:23.590Z,46.70
2023-01-30T07:37:25.430Z,47.30
2023-01-30T07:40:26.776Z,47.00
2023-01-30T07:43:28.124Z,47.10
2023-01-30T07:46:34.061Z,46.50
2023-01-30T07:49:35.376Z,47.00
2023-01-30T07:52:38.045Z,46.60
2023-01-30T07:55:39.515Z,46.80
2023-01-30T07:58:40.770Z,46.70
2023-01-30T08:01:42.096Z,47.20
2023-01-30T08:04:43.355Z,46.80
2023-01-30T08:07:46.609Z,45.70
2023-01-30T08:10:48.240Z,45.20
2023-01-30T08:13:49.701Z,44.70
2023-01-30T08:16:51.516Z,45.10
2023-01-30T08:19:52.800Z,44.60
2023-01-30T08:22:54.739Z,44.60
2023-01-30T08:25:56.710Z,45.10
2023-01-30T08:28:58.996Z,44.60
2023-01-30T08:32:00.547Z,44.90
2023-01-30T08:35:01.852Z,44.20
2023-01-30T08:38:06.370Z,44.80
2023-01-30T08:41:08.307Z,44.60
2023-01-30T08:44:09.771Z,45.10
2023-01-30T08:47:11.199Z,44.70
2023-01-30T08:50:12.503Z,44.80
2023-01-30T08:53:14.406Z,44.50
2023-01-30T08:56:15.774Z,45.20
2023-01-30T08:59:17.031Z,44.40
2023-01-30T09:02:18.325Z,45.00
2023-01-30T09:05:19.607Z,44.90
2023-01-30T09:08:21.867Z,44.80
2023-01-30T09:11:23.117Z,44.70
2023-01-30T09:14:24.559Z,44.70
2023-01-30T09:17:27.037Z,44.10
2023-01-30T09:20:28.270Z,45.00
2023-01-30T09:23:30.312Z,44.60
2023-01-30T09:26:31.983Z,45.60
2023-01-30T09:29:33.267Z,44.90
2023-01-30T09:32:36.632Z,44.40
2023-01-30T09:35:38.917Z,45.00
2023-01-30T09:38:40.760Z,44.40
2023-01-30T09:41:51.900Z,44.90
2023-01-30T09:45:02.809Z,44.40
2023-01-30T09:48:06.944Z,44.30
2023-01-30T09:51:15.747Z,44.50
2023-01-30T09:54:21.372Z,44.80
2023-01-30T09:57:23.819Z,44.50
2023-01-30T10:00:28.514Z,43.30
2023-01-30T10:03:34.615Z,44.60
2023-01-30T10:06:39.674Z,44.50
2023-01-30T10:09:47.358Z,44.50
2023-01-30T10:12:54.217Z,44.50
2023-01-30T10:16:01.317Z,44.70
2023-01-30T10:19:16.054Z,44.80
2023-01-30T10:22:26.785Z,44.30
2023-01-30T10:25:32.288Z,45.00
2023-01-30T10:28:37.119Z,44.90
2023-01-30T10:31:41.821Z,45.00
2023-01-30T10:34:46.318Z,45.00
2023-01-30T10:37:52.659Z,45.40
2023-01-30T10:40:58.428Z,45.60
2023-01-30T10:44:01.643Z,45.40
2023-01-30T10:47:16.356Z,45.40
2023-01-30T10:50:23.146Z,45.50
2023-01-30T10:53:27.900Z,45.10
2023-01-30T10:56:36.106Z,45.70
2023-01-30T10:59:45.654Z,45.20
2023-01-30T11:03:02.867Z,45.40
2023-01-30T11:06:06.880Z,45.00
2023-01-30T11:09:08.258Z,45.20
2023-01-30T11:12:10.658Z,44.90
2023-01-30T11:15:11.956Z,45.30
2023-01-30T11:21:43.879Z,45.40
2023-01-30T11:24:46.158Z,45.00
2023-01-30T11:27:52.489Z,45.20
2023-01-30T11:30:55.534Z,45.00
2023-01-30T11:34:00.786Z,45.20
2023-01-30T11:37:13.549Z,45.40
2023-01-30T11:40:23.186Z,45.30
2023-01-30T11:43:27.263Z,45.40
2023-01-30T11:46:30.803Z,45.90
2023-01-30T11:49:47.319Z,45.60
2023-01-30T11:53:00.518Z,45.70
2023-01-30T11:56:08.562Z,45.80
2023-01-30T11:59:20.067Z,46.00
2023-01-30T12:02:24.095Z,45.50
2023-01-30T12:05:29.841Z,45.70
2023-01-30T12:08:41.721Z,45.80
2023-01-30T12:11:44.420Z,45.90
2023-01-30T12:14:48.536Z,45.70
2023-01-30T12:17:52.334Z,46.50
2023-01-30T12:20:57.317Z,46.00
2023-01-30T12:24:02.455Z,46.40
2023-01-30T12:27:05.676Z,45.80
2023-01-30T12:30:18.320Z,46.10
2023-01-30T12:33:19.802Z,45.90
2023-01-30T12:36:26.675Z,46.30
2023-01-30T12:39:37.273Z,45.90
2023-01-30T12:42:51.187Z,46.20
2023-01-30T12:46:00.167Z,45.90
2023-01-30T12:49:19.608Z,46.30
2023-01-30T12:52:27.707Z,46.20
2023-01-30T12:55:34.125Z,46.00
2023-01-30T12:58:38.085Z,46.20
2023-01-30T13:01:44.769Z,46.50
2023-01-30T13:05:01.691Z,46.10
2023-01-30T13:08:12.678Z,46.50
2023-01-30T13:11:28.113Z,46.00
2023-01-30T13:14:32.455Z,46.60
2023-01-30T13:17:39.339Z,46.40
2023-01-30T13:20:47.048Z,46.70
2023-01-30T13:23:56.859Z,46.50
2023-01-30T13:26:58.885Z,46.70
2023-01-30T13:30:01.364Z,46.50
2023-01-30T13:33:06.204Z,46.80
2023-01-30T13:36:12.173Z,47.00
2023-01-30T13:39:19.094Z,46.90
2023-01-30T13:42:26.651Z,46.80
2023-01-30T13:45:29.209Z,46.70
2023-01-30T13:48:37.400Z,46.70
2023-01-30T13:51:42.633Z,46.90
2023-01-30T13:54:49.564Z,46.80
2023-01-30T13:57:54.072Z,47.30
2023-01-30T14:00:55.785Z,46.90
2023-01-30T14:04:18.689Z,47.00
2023-01-30T14:07:23.775Z,47.00
2023-01-30T14:10:26.623Z,46.70
2023-01-30T14:13:28.408Z,46.70
2023-01-30T14:16:43.533Z,47.20
2023-01-30T14:19:47.169Z,46.70
2023-01-30T14:22:50.577Z,46.60
2023-01-30T14:25:52.607Z,47.00
2023-01-30T14:28:54.719Z,47.10
2023-01-30T14:31:56.158Z,46.70
2023-01-30T14:35:13.334Z,47.60
2023-01-30T14:38:16.817Z,47.10
2023-01-30T14:41:25.735Z,47.40
2023-01-30T14:44:36.537Z,47.10
2023-01-30T14:47:47.186Z,47.50
2023-01-30T14:50:49.829Z,46.80
2023-01-30T14:53:53.582Z,47.80
2023-01-30T14:56:57.838Z,47.30
2023-01-30T15:00:18.392Z,47.80
2023-01-30T15:03:20.529Z,47.60
2023-01-30T15:06:25.622Z,48.10
2023-01-30T15:09:28.567Z,47.40
2023-01-30T15:12:43.513Z,48.30
2023-01-30T15:15:50.407Z,47.60
2023-01-30T15:19:03.047Z,48.30
2023-01-30T15:22:10.871Z,47.70
2023-01-30T15:25:20.335Z,47.80
2023-01-30T15:28:27.465Z,47.90
2023-01-30T15:31:28.870Z,48.50
2023-01-30T15:34:31.017Z,47.80
2023-01-30T15:37:33.247Z,48.30
2023-01-30T15:40:35.596Z,48.10
2023-01-30T15:43:41.828Z,48.70
2023-01-30T15:46:46.350Z,48.40
2023-01-30T15:49:54.290Z,48.10
2023-01-30T15:52:57.396Z,48.10
2023-01-30T15:56:00.543Z,48.30
2023-01-30T15:59:02.336Z,48.50
2023-01-30T16:02:05.543Z,48.80
2023-01-30T16:05:14.388Z,48.70
2023-01-30T16:08:20.627Z,48.80
2023-01-30T16:11:32.307Z,48.50
2023-01-30T16:14:33.795Z,49.30
2023-01-30T16:17:35.088Z,48.70
2023-01-30T16:20:48.711Z,48.90
2023-01-30T16:24:00.755Z,48.70
2023-01-30T16:27:04.226Z,48.90
2023-01-30T16:30:08.393Z,49.30
2023-01-30T16:33:13.338Z,48.90
2023-01-30T16:36:29.529Z,48.90
2023-01-30T16:39:31.767Z,49.10
2023-01-30T16:42:33.685Z,49.00
2023-01-30T16:45:49.885Z,49.10
2023-01-30T16:48:51.186Z,49.60
2023-01-30T16:51:59.271Z,49.30
2023-01-30T16:55:02.005Z,48.90
2023-01-30T16:58:04.124Z,49.30
2023-01-30T17:01:06.583Z,49.10
2023-01-30T17:04:17.954Z,49.30
2023-01-30T17:10:48.947Z,50.00
2023-01-30T17:14:07.988Z,50.60
2023-01-30T17:17:12.638Z,50.80
2023-01-30T17:20:15.523Z,50.70
2023-01-30T17:23:18.040Z,50.50
2023-01-30T17:26:19.298Z,51.00
2023-01-30T17:29:41.263Z,52.30
2023-01-30T17:39:19.202Z,66.20
2023-01-30T17:42:21.232Z,65.70
2023-01-30T17:45:23.147Z,66.00
2023-01-30T17:48:24.475Z,64.60
2023-01-30T17:51:25.763Z,64.10
2023-01-30T17:54:29.184Z,64.00
2023-01-30T17:57:30.481Z,63.40
2023-01-30T18:00:32.277Z,63.10
2023-01-30T18:03:33.637Z,62.80
2023-01-30T18:06:35.184Z,62.30
2023-01-30T18:09:36.524Z,62.90
2023-01-30T18:12:37.781Z,60.90
2023-01-30T18:15:39.775Z,63.40
2023-01-30T18:18:41.095Z,62.80
2023-01-30T18:21:44.278Z,62.80
2023-01-30T18:24:45.707Z,60.40
2023-01-30T18:27:47.304Z,62.30
2023-01-30T18:30:49.257Z,61.90
2023-01-30T18:33:51.553Z,62.20
2023-01-30T18:36:52.834Z,60.90
2023-01-30T18:39:54.181Z,62.60
2023-01-30T18:42:55.608Z,62.60
2023-01-30T18:46:05.585Z,62.70
2023-01-30T18:49:07.467Z,60.50
2023-01-30T18:52:08.779Z,60.80
2023-01-30T18:55:10.175Z,62.50
2023-01-30T18:58:11.423Z,62.20
2023-01-30T19:01:14.422Z,62.90
2023-01-30T19:04:15.848Z,62.70
2023-01-30T19:07:17.167Z,62.20
2023-01-30T19:10:19.688Z,60.30
2023-01-30T19:13:33.122Z,61.90
2023-01-30T19:16:37.110Z,63.00
2023-01-30T19:19:38.358Z,62.30
2023-01-30T19:22:39.771Z,61.50
2023-01-30T19:25:41.123Z,62.60
2023-01-30T19:28:43.906Z,61.80
2023-01-30T19:31:46.394Z,61.20
2023-01-30T19:34:49.916Z,61.40
2023-01-30T19:37:54.273Z,60.60
2023-01-30T19:40:55.739Z,62.20
2023-01-30T19:43:57.743Z,61.80
2023-01-30T19:46:59.917Z,61.90
2023-01-30T19:50:01.284Z,61.90
2023-01-30T19:53:03.097Z,62.40
2023-01-30T19:56:05.176Z,61.30
2023-01-30T19:59:07.049Z,62.80
2023-01-30T20:02:09.567Z,63.20
2023-01-30T20:05:11.020Z,62.80
2023-01-30T20:08:25.470Z,62.50
2023-01-30T20:11:33.756Z,61.30
2023-01-30T20:14:35.045Z,62.70
2023-01-30T20:17:37.039Z,64.00
2023-01-30T20:20:38.364Z,62.60
2023-01-30T20:23:40.825Z,63.40
2023-01-30T20:26:42.581Z,62.90
2023-01-30T20:29:43.948Z,61.20
2023-01-30T20:32:45.774Z,62.40
2023-01-30T20:35:47.134Z,62.30
2023-01-30T20:38:49.051Z,63.30
2023-01-30T20:41:50.401Z,62.00
2023-01-30T20:44:51.699Z,62.40
2023-01-30T20:47:53.580Z,61.30
2023-01-30T20:50:54.994Z,61.30
2023-01-30T20:53:57.176Z,61.80
2023-01-30T20:56:58.531Z,62.90
2023-01-30T20:59:59.776Z,62.90
2023-01-30T21:03:01.925Z,62.20
2023-01-30T21:06:03.873Z,62.00
2023-01-30T21:09:05.956Z,63.10
2023-01-30T21:12:07.288Z,60.30
2023-01-30T21:15:09.429Z,62.20
2023-01-30T21:18:11.371Z,61.50
2023-01-30T21:21:15.648Z,62.00
2023-01-30T21:24:23.246Z,63.10
2023-01-30T21:27:24.525Z,61.90
2023-01-30T21:30:25.810Z,61.70
2023-01-30T21:33:27.952Z,59.90
2023-01-30T21:36:29.335Z,61.30
2023-01-30T21:39:43.088Z,60.60
2023-01-30T21:42:59.050Z,60.80
2023-01-30T21:46:00.352Z,60.30
2023-01-30T21:49:02.388Z,61.30
2023-01-30T21:52:03.811Z,59.70
2023-01-30T21:55:05.362Z,60.50
2023-01-30T21:58:06.788Z,60.80
2023-01-30T22:01:08.157Z,61.30
2023-01-30T22:04:10.587Z,60.40
2023-01-30T22:07:11.978Z,61.90
2023-01-30T22:10:13.410Z,60.10
2023-01-30T22:13:14.644Z,62.50
2023-01-30T22:16:17.004Z,61.80
2023-01-30T22:19:18.987Z,60.50
2023-01-30T22:22:21.001Z,61.10
2023-01-30T22:25:22.598Z,61.50
2023-01-30T22:28:24.029Z,60.70
2023-01-30T22:31:26.319Z,60.60
2023-01-30T22:34:28.270Z,60.80
2023-01-30T22:37:29.567Z,61.70
2023-01-30T22:40:31.269Z,60.00
2023-01-30T22:43:33.186Z,60.70
2023-01-30T22:46:36.107Z,60.00
2023-01-30T22:49:39.605Z,60.40
2023-01-30T22:52:40.858Z,59.10
2023-01-30T22:55:42.076Z,59.90
2023-01-30T22:58:43.497Z,59.90
2023-01-30T23:01:46.771Z,59.40
2023-01-30T23:04:49.900Z,59.20
2023-01-30T23:07:51.274Z,59.40
2023-01-30T23:10:52.642Z,58.50
2023-01-30T23:13:55.474Z,59.90
2023-01-30T23:16:56.783Z,59.20
2023-01-30T23:19:58.537Z,59.20
2023-01-30T23:22:59.815Z,59.60
2023-01-30T23:26:01.088Z,59.90
2023-01-30T23:29:03.287Z,59.10
2023-01-30T23:32:04.825Z,58.60
2023-01-30T23:35:07.002Z,58.90
2023-01-30T23:38:18.338Z,58.90
2023-01-30T23:41:20.415Z,58.70
2023-01-30T23:44:21.761Z,59.60
2023-01-30T23:47:23.106Z,59.40
2023-01-30T23:50:24.980Z,60.60
2023-01-30T23:53:26.299Z,59.90
2023-01-30T23:56:28.511Z,59.90
2023-01-30T23:59:29.808Z,59.30
